sensor_id;sensor_type;location;lat;lon;timestamp;P1;durP1;ratioP1;P2;durP2;ratioP2
8580;SDS011;4328;48.622;9.230;2023-09-30T00:00:58;11.63;;;6.60;;
8580;SDS011;4328;48.622;9.230;2023-09-30T00:03:24;13.43;;;7.20;;
8580;SDS011;4328;48.622;9.230;2023-09-30T00:05:50;15.37;;;7.17;;
8580;SDS011;4328;48.622;9.230;2023-09-30T00:08:17;13.47;;;7.93;;
8580;SDS011;4328;48.622;9.230;2023-09-30T00:10:43;11.57;;;6.67;;
8580;SDS011;4328;48.622;9.230;2023-09-30T00:13:11;13.67;;;7.63;;
8580;SDS011;4328;48.622;9.230;2023-09-30T00:15:38;14.33;;;7.10;;
8580;SDS011;4328;48.622;9.230;2023-09-30T00:18:06;12.47;;;6.77;;
8580;SDS011;4328;48.622;9.230;2023-09-30T00:20:32;12.23;;;6.67;;
8580;SDS011;4328;48.622;9.230;2023-09-30T00:22:59;11.87;;;6.93;;
8580;SDS011;4328;48.622;9.230;2023-09-30T00:25:25;12.53;;;7.00;;
8580;SDS011;4328;48.622;9.230;2023-09-30T00:27:53;12.60;;;6.90;;
8580;SDS011;4328;48.622;9.230;2023-09-30T00:30:19;11.07;;;6.47;;
8580;SDS011;4328;48.622;9.230;2023-09-30T00:32:48;10.83;;;6.33;;
8580;SDS011;4328;48.622;9.230;2023-09-30T00:35:14;12.40;;;6.63;;
8580;SDS011;4328;48.622;9.230;2023-09-30T00:37:41;12.47;;;6.80;;
8580;SDS011;4328;48.622;9.230;2023-09-30T00:40:08;11.07;;;6.03;;
8580;SDS011;4328;48.622;9.230;2023-09-30T00:42:36;11.10;;;5.97;;
8580;SDS011;4328;48.622;9.230;2023-09-30T00:45:03;11.27;;;5.83;;
8580;SDS011;4328;48.622;9.230;2023-09-30T00:47:31;11.90;;;6.40;;
8580;SDS011;4328;48.622;9.230;2023-09-30T00:49:59;10.40;;;6.00;;
8580;SDS011;4328;48.622;9.230;2023-09-30T00:52:26;11.00;;;6.20;;
8580;SDS011;4328;48.622;9.230;2023-09-30T00:54:53;11.57;;;6.13;;
8580;SDS011;4328;48.622;9.230;2023-09-30T00:57:20;12.77;;;6.03;;
8580;SDS011;4328;48.622;9.230;2023-09-30T00:59:46;12.87;;;6.57;;
8580;SDS011;4328;48.622;9.230;2023-09-30T01:02:13;10.43;;;5.97;;
8580;SDS011;4328;48.622;9.230;2023-09-30T01:04:40;11.77;;;6.23;;
8580;SDS011;4328;48.622;9.230;2023-09-30T01:07:08;9.20;;;5.60;;
8580;SDS011;4328;48.622;9.230;2023-09-30T01:09:34;9.30;;;5.93;;
8580;SDS011;4328;48.622;9.230;2023-09-30T01:12:01;10.20;;;5.60;;
8580;SDS011;4328;48.622;9.230;2023-09-30T01:14:30;10.33;;;5.90;;
8580;SDS011;4328;48.622;9.230;2023-09-30T01:16:56;10.93;;;5.77;;
8580;SDS011;4328;48.622;9.230;2023-09-30T01:19:23;11.10;;;5.40;;
8580;SDS011;4328;48.622;9.230;2023-09-30T01:21:52;10.47;;;5.57;;
8580;SDS011;4328;48.622;9.230;2023-09-30T01:24:20;9.43;;;4.90;;
8580;SDS011;4328;48.622;9.230;2023-09-30T01:26:46;10.17;;;5.40;;
8580;SDS011;4328;48.622;9.230;2023-09-30T01:29:13;9.07;;;5.13;;
8580;SDS011;4328;48.622;9.230;2023-09-30T01:31:40;8.80;;;5.07;;
8580;SDS011;4328;48.622;9.230;2023-09-30T01:34:06;9.70;;;5.33;;
8580;SDS011;4328;48.622;9.230;2023-09-30T01:36:32;9.10;;;5.40;;
8580;SDS011;4328;48.622;9.230;2023-09-30T01:39:00;11.20;;;5.40;;
8580;SDS011;4328;48.622;9.230;2023-09-30T01:41:28;8.57;;;5.47;;
8580;SDS011;4328;48.622;9.230;2023-09-30T01:43:54;8.30;;;4.87;;
8580;SDS011;4328;48.622;9.230;2023-09-30T01:46:22;8.40;;;4.53;;
8580;SDS011;4328;48.622;9.230;2023-09-30T01:48:49;8.50;;;5.10;;
8580;SDS011;4328;48.622;9.230;2023-09-30T01:51:19;9.53;;;5.17;;
8580;SDS011;4328;48.622;9.230;2023-09-30T01:53:46;9.47;;;4.90;;
8580;SDS011;4328;48.622;9.230;2023-09-30T01:56:14;9.63;;;5.13;;
8580;SDS011;4328;48.622;9.230;2023-09-30T01:58:41;10.07;;;5.20;;
8580;SDS011;4328;48.622;9.230;2023-09-30T02:01:08;8.47;;;4.83;;
8580;SDS011;4328;48.622;9.230;2023-09-30T02:03:35;8.67;;;4.83;;
8580;SDS011;4328;48.622;9.230;2023-09-30T02:06:01;10.03;;;4.67;;
8580;SDS011;4328;48.622;9.230;2023-09-30T02:08:28;9.87;;;5.07;;
8580;SDS011;4328;48.622;9.230;2023-09-30T02:10:55;10.50;;;5.17;;
8580;SDS011;4328;48.622;9.230;2023-09-30T02:13:23;8.67;;;4.63;;
8580;SDS011;4328;48.622;9.230;2023-09-30T02:15:49;8.83;;;4.70;;
8580;SDS011;4328;48.622;9.230;2023-09-30T02:18:16;9.57;;;5.30;;
8580;SDS011;4328;48.622;9.230;2023-09-30T02:20:42;9.63;;;5.30;;
8580;SDS011;4328;48.622;9.230;2023-09-30T02:23:10;7.93;;;4.70;;
8580;SDS011;4328;48.622;9.230;2023-09-30T02:25:36;9.27;;;4.80;;
8580;SDS011;4328;48.622;9.230;2023-09-30T02:28:03;9.50;;;4.77;;
8580;SDS011;4328;48.622;9.230;2023-09-30T02:30:31;9.10;;;5.10;;
8580;SDS011;4328;48.622;9.230;2023-09-30T02:32:57;7.10;;;4.20;;
8580;SDS011;4328;48.622;9.230;2023-09-30T02:35:24;11.77;;;4.63;;
8580;SDS011;4328;48.622;9.230;2023-09-30T02:37:51;8.07;;;4.67;;
8580;SDS011;4328;48.622;9.230;2023-09-30T02:40:17;10.37;;;5.43;;
8580;SDS011;4328;48.622;9.230;2023-09-30T02:42:45;8.90;;;4.47;;
8580;SDS011;4328;48.622;9.230;2023-09-30T02:45:11;8.40;;;4.73;;
8580;SDS011;4328;48.622;9.230;2023-09-30T02:47:41;11.53;;;5.07;;
8580;SDS011;4328;48.622;9.230;2023-09-30T02:50:08;7.67;;;4.43;;
8580;SDS011;4328;48.622;9.230;2023-09-30T02:52:36;8.50;;;4.63;;
8580;SDS011;4328;48.622;9.230;2023-09-30T02:55:04;9.63;;;4.80;;
8580;SDS011;4328;48.622;9.230;2023-09-30T02:57:31;7.10;;;3.93;;
8580;SDS011;4328;48.622;9.230;2023-09-30T02:59:58;8.67;;;4.93;;
8580;SDS011;4328;48.622;9.230;2023-09-30T03:02:25;7.50;;;4.40;;
8580;SDS011;4328;48.622;9.230;2023-09-30T03:04:53;9.03;;;4.37;;
8580;SDS011;4328;48.622;9.230;2023-09-30T03:07:19;8.70;;;4.30;;
8580;SDS011;4328;48.622;9.230;2023-09-30T03:09:46;7.87;;;4.73;;
8580;SDS011;4328;48.622;9.230;2023-09-30T03:12:13;7.30;;;4.20;;
8580;SDS011;4328;48.622;9.230;2023-09-30T03:14:39;8.23;;;4.23;;
8580;SDS011;4328;48.622;9.230;2023-09-30T03:17:06;7.90;;;4.80;;
8580;SDS011;4328;48.622;9.230;2023-09-30T03:19:36;7.97;;;4.63;;
8580;SDS011;4328;48.622;9.230;2023-09-30T03:22:04;8.13;;;4.47;;
8580;SDS011;4328;48.622;9.230;2023-09-30T03:24:31;7.90;;;4.20;;
8580;SDS011;4328;48.622;9.230;2023-09-30T03:26:57;11.07;;;4.53;;
8580;SDS011;4328;48.622;9.230;2023-09-30T03:29:24;6.60;;;4.13;;
8580;SDS011;4328;48.622;9.230;2023-09-30T03:31:51;6.47;;;3.97;;
8580;SDS011;4328;48.622;9.230;2023-09-30T03:34:17;6.93;;;4.33;;
8580;SDS011;4328;48.622;9.230;2023-09-30T03:36:45;7.10;;;4.23;;
8580;SDS011;4328;48.622;9.230;2023-09-30T03:39:13;6.33;;;3.97;;
8580;SDS011;4328;48.622;9.230;2023-09-30T03:41:40;7.53;;;4.10;;
8580;SDS011;4328;48.622;9.230;2023-09-30T03:44:07;8.43;;;4.27;;
8580;SDS011;4328;48.622;9.230;2023-09-30T03:46:33;6.83;;;4.20;;
8580;SDS011;4328;48.622;9.230;2023-09-30T03:48:59;7.87;;;4.07;;
8580;SDS011;4328;48.622;9.230;2023-09-30T03:51:26;7.83;;;3.97;;
8580;SDS011;4328;48.622;9.230;2023-09-30T03:53:52;8.63;;;4.37;;
8580;SDS011;4328;48.622;9.230;2023-09-30T03:56:20;8.03;;;3.90;;
8580;SDS011;4328;48.622;9.230;2023-09-30T03:58:47;6.43;;;4.70;;
8580;SDS011;4328;48.622;9.230;2023-09-30T04:01:14;6.47;;;3.50;;
8580;SDS011;4328;48.622;9.230;2023-09-30T04:03:41;6.97;;;4.10;;
8580;SDS011;4328;48.622;9.230;2023-09-30T04:06:08;7.23;;;4.17;;
8580;SDS011;4328;48.622;9.230;2023-09-30T04:08:35;7.87;;;4.23;;
8580;SDS011;4328;48.622;9.230;2023-09-30T04:11:02;6.30;;;4.03;;
8580;SDS011;4328;48.622;9.230;2023-09-30T04:13:30;7.30;;;4.10;;
8580;SDS011;4328;48.622;9.230;2023-09-30T04:15:58;7.03;;;3.97;;
8580;SDS011;4328;48.622;9.230;2023-09-30T04:18:24;7.67;;;4.03;;
8580;SDS011;4328;48.622;9.230;2023-09-30T04:20:51;6.70;;;4.20;;
8580;SDS011;4328;48.622;9.230;2023-09-30T04:23:17;7.03;;;3.90;;
8580;SDS011;4328;48.622;9.230;2023-09-30T04:25:45;7.93;;;4.30;;
8580;SDS011;4328;48.622;9.230;2023-09-30T04:28:11;7.50;;;4.13;;
8580;SDS011;4328;48.622;9.230;2023-09-30T04:30:40;6.73;;;4.07;;
8580;SDS011;4328;48.622;9.230;2023-09-30T04:33:07;7.10;;;3.87;;
8580;SDS011;4328;48.622;9.230;2023-09-30T04:35:34;7.63;;;3.73;;
8580;SDS011;4328;48.622;9.230;2023-09-30T04:38:01;5.40;;;3.50;;
8580;SDS011;4328;48.622;9.230;2023-09-30T04:40:29;6.33;;;3.20;;
8580;SDS011;4328;48.622;9.230;2023-09-30T04:42:55;8.47;;;3.60;;
8580;SDS011;4328;48.622;9.230;2023-09-30T04:45:23;6.27;;;3.80;;
8580;SDS011;4328;48.622;9.230;2023-09-30T04:47:52;8.17;;;3.60;;
8580;SDS011;4328;48.622;9.230;2023-09-30T04:50:21;6.17;;;3.60;;
8580;SDS011;4328;48.622;9.230;2023-09-30T04:52:47;6.27;;;3.80;;
8580;SDS011;4328;48.622;9.230;2023-09-30T04:55:15;5.33;;;3.30;;
8580;SDS011;4328;48.622;9.230;2023-09-30T04:57:42;5.37;;;3.43;;
8580;SDS011;4328;48.622;9.230;2023-09-30T05:00:10;5.87;;;3.30;;
8580;SDS011;4328;48.622;9.230;2023-09-30T05:02:37;5.17;;;3.70;;
8580;SDS011;4328;48.622;9.230;2023-09-30T05:05:06;7.93;;;3.50;;
8580;SDS011;4328;48.622;9.230;2023-09-30T05:07:33;7.10;;;4.00;;
8580;SDS011;4328;48.622;9.230;2023-09-30T05:10:00;6.47;;;3.30;;
8580;SDS011;4328;48.622;9.230;2023-09-30T05:12:30;6.30;;;3.30;;
8580;SDS011;4328;48.622;9.230;2023-09-30T05:14:56;6.73;;;3.90;;
8580;SDS011;4328;48.622;9.230;2023-09-30T05:17:23;6.47;;;3.83;;
8580;SDS011;4328;48.622;9.230;2023-09-30T05:19:49;6.47;;;3.80;;
8580;SDS011;4328;48.622;9.230;2023-09-30T05:22:17;5.63;;;3.60;;
8580;SDS011;4328;48.622;9.230;2023-09-30T05:24:47;6.47;;;3.27;;
8580;SDS011;4328;48.622;9.230;2023-09-30T05:27:13;7.77;;;3.73;;
8580;SDS011;4328;48.622;9.230;2023-09-30T05:29:41;5.43;;;3.40;;
8580;SDS011;4328;48.622;9.230;2023-09-30T05:32:07;6.03;;;3.70;;
8580;SDS011;4328;48.622;9.230;2023-09-30T05:34:35;7.70;;;3.47;;
8580;SDS011;4328;48.622;9.230;2023-09-30T05:37:02;5.03;;;3.17;;
8580;SDS011;4328;48.622;9.230;2023-09-30T05:39:30;4.63;;;3.20;;
8580;SDS011;4328;48.622;9.230;2023-09-30T05:41:57;4.47;;;3.13;;
8580;SDS011;4328;48.622;9.230;2023-09-30T05:44:24;6.60;;;3.50;;
8580;SDS011;4328;48.622;9.230;2023-09-30T05:46:52;6.83;;;3.77;;
8580;SDS011;4328;48.622;9.230;2023-09-30T05:49:19;6.70;;;3.40;;
8580;SDS011;4328;48.622;9.230;2023-09-30T05:51:46;4.90;;;3.40;;
8580;SDS011;4328;48.622;9.230;2023-09-30T05:54:12;5.70;;;3.40;;
8580;SDS011;4328;48.622;9.230;2023-09-30T05:56:40;7.23;;;3.57;;
8580;SDS011;4328;48.622;9.230;2023-09-30T05:59:08;5.03;;;3.03;;
8580;SDS011;4328;48.622;9.230;2023-09-30T06:01:35;5.73;;;3.40;;
8580;SDS011;4328;48.622;9.230;2023-09-30T06:04:03;4.87;;;3.00;;
8580;SDS011;4328;48.622;9.230;2023-09-30T06:06:30;4.87;;;3.47;;
8580;SDS011;4328;48.622;9.230;2023-09-30T06:08:56;4.83;;;3.00;;
8580;SDS011;4328;48.622;9.230;2023-09-30T06:11:23;5.53;;;3.23;;
8580;SDS011;4328;48.622;9.230;2023-09-30T06:13:51;6.70;;;3.17;;
8580;SDS011;4328;48.622;9.230;2023-09-30T06:16:18;5.07;;;3.40;;
8580;SDS011;4328;48.622;9.230;2023-09-30T06:18:45;5.53;;;3.17;;
8580;SDS011;4328;48.622;9.230;2023-09-30T06:21:13;6.67;;;3.37;;
8580;SDS011;4328;48.622;9.230;2023-09-30T06:23:40;5.63;;;3.17;;
8580;SDS011;4328;48.622;9.230;2023-09-30T06:26:06;4.90;;;3.30;;
8580;SDS011;4328;48.622;9.230;2023-09-30T06:28:33;5.47;;;3.30;;
8580;SDS011;4328;48.622;9.230;2023-09-30T06:31:07;5.07;;;3.07;;
8580;SDS011;4328;48.622;9.230;2023-09-30T06:33:34;4.60;;;3.40;;
8580;SDS011;4328;48.622;9.230;2023-09-30T06:36:00;4.63;;;2.90;;
8580;SDS011;4328;48.622;9.230;2023-09-30T06:38:27;6.83;;;3.50;;
8580;SDS011;4328;48.622;9.230;2023-09-30T06:40:54;5.57;;;3.10;;
8580;SDS011;4328;48.622;9.230;2023-09-30T06:43:21;5.60;;;3.17;;
8580;SDS011;4328;48.622;9.230;2023-09-30T06:45:47;4.90;;;3.73;;
8580;SDS011;4328;48.622;9.230;2023-09-30T06:48:15;6.47;;;3.60;;
8580;SDS011;4328;48.622;9.230;2023-09-30T06:50:43;5.20;;;3.27;;
8580;SDS011;4328;48.622;9.230;2023-09-30T06:53:10;7.80;;;3.73;;
8580;SDS011;4328;48.622;9.230;2023-09-30T06:55:37;4.97;;;3.27;;
8580;SDS011;4328;48.622;9.230;2023-09-30T06:58:03;6.37;;;3.17;;
8580;SDS011;4328;48.622;9.230;2023-09-30T07:00:32;4.13;;;2.80;;
8580;SDS011;4328;48.622;9.230;2023-09-30T07:02:59;6.63;;;3.30;;
8580;SDS011;4328;48.622;9.230;2023-09-30T07:05:26;5.87;;;3.00;;
8580;SDS011;4328;48.622;9.230;2023-09-30T07:07:53;4.43;;;3.17;;
8580;SDS011;4328;48.622;9.230;2023-09-30T07:10:20;5.40;;;3.40;;
8580;SDS011;4328;48.622;9.230;2023-09-30T07:12:46;6.00;;;3.23;;
8580;SDS011;4328;48.622;9.230;2023-09-30T07:15:13;5.20;;;3.70;;
8580;SDS011;4328;48.622;9.230;2023-09-30T07:17:40;5.23;;;3.20;;
8580;SDS011;4328;48.622;9.230;2023-09-30T07:20:06;5.77;;;3.53;;
8580;SDS011;4328;48.622;9.230;2023-09-30T07:22:36;6.77;;;3.20;;
8580;SDS011;4328;48.622;9.230;2023-09-30T07:25:02;5.23;;;3.00;;
8580;SDS011;4328;48.622;9.230;2023-09-30T07:27:29;8.10;;;3.30;;
8580;SDS011;4328;48.622;9.230;2023-09-30T07:29:57;5.57;;;3.50;;
8580;SDS011;4328;48.622;9.230;2023-09-30T07:32:23;4.60;;;3.00;;
8580;SDS011;4328;48.622;9.230;2023-09-30T07:34:50;4.33;;;3.20;;
8580;SDS011;4328;48.622;9.230;2023-09-30T07:37:17;7.00;;;3.63;;
8580;SDS011;4328;48.622;9.230;2023-09-30T07:39:47;6.30;;;3.77;;
8580;SDS011;4328;48.622;9.230;2023-09-30T07:42:13;5.90;;;3.67;;
8580;SDS011;4328;48.622;9.230;2023-09-30T07:44:39;5.97;;;3.07;;
8580;SDS011;4328;48.622;9.230;2023-09-30T07:47:06;4.03;;;3.07;;
8580;SDS011;4328;48.622;9.230;2023-09-30T07:49:33;4.27;;;3.27;;
8580;SDS011;4328;48.622;9.230;2023-09-30T07:52:00;6.03;;;3.67;;
8580;SDS011;4328;48.622;9.230;2023-09-30T07:54:26;5.30;;;3.27;;
8580;SDS011;4328;48.622;9.230;2023-09-30T07:56:54;3.97;;;3.17;;
8580;SDS011;4328;48.622;9.230;2023-09-30T07:59:21;5.17;;;3.60;;
8580;SDS011;4328;48.622;9.230;2023-09-30T08:01:47;5.20;;;3.13;;
8580;SDS011;4328;48.622;9.230;2023-09-30T08:04:14;4.63;;;3.20;;
8580;SDS011;4328;48.622;9.230;2023-09-30T08:06:40;5.20;;;3.30;;
8580;SDS011;4328;48.622;9.230;2023-09-30T08:09:07;5.33;;;3.20;;
8580;SDS011;4328;48.622;9.230;2023-09-30T08:11:36;6.37;;;3.60;;
8580;SDS011;4328;48.622;9.230;2023-09-30T08:14:04;4.17;;;3.50;;
8580;SDS011;4328;48.622;9.230;2023-09-30T08:16:32;3.80;;;3.27;;
8580;SDS011;4328;48.622;9.230;2023-09-30T08:18:58;10.10;;;4.13;;
8580;SDS011;4328;48.622;9.230;2023-09-30T08:21:25;5.10;;;3.70;;
8580;SDS011;4328;48.622;9.230;2023-09-30T08:23:51;9.07;;;4.60;;
8580;SDS011;4328;48.622;9.230;2023-09-30T08:26:17;7.30;;;4.20;;
8580;SDS011;4328;48.622;9.230;2023-09-30T08:28:44;7.87;;;4.50;;
8580;SDS011;4328;48.622;9.230;2023-09-30T08:31:11;6.70;;;4.40;;
8580;SDS011;4328;48.622;9.230;2023-09-30T08:33:40;6.47;;;4.40;;
8580;SDS011;4328;48.622;9.230;2023-09-30T08:36:10;8.17;;;4.50;;
8580;SDS011;4328;48.622;9.230;2023-09-30T08:38:37;9.63;;;4.77;;
8580;SDS011;4328;48.622;9.230;2023-09-30T08:41:04;5.93;;;4.07;;
8580;SDS011;4328;48.622;9.230;2023-09-30T08:43:32;4.37;;;3.90;;
8580;SDS011;4328;48.622;9.230;2023-09-30T08:46:05;8.07;;;3.87;;
8580;SDS011;4328;48.622;9.230;2023-09-30T08:48:33;5.30;;;3.40;;
8580;SDS011;4328;48.622;9.230;2023-09-30T08:51:00;6.68;;;3.67;;
8580;SDS011;4328;48.622;9.230;2023-09-30T08:53:27;7.55;;;3.55;;
8580;SDS011;4328;48.622;9.230;2023-09-30T08:55:55;5.20;;;3.47;;
8580;SDS011;4328;48.622;9.230;2023-09-30T08:58:24;5.55;;;3.63;;
8580;SDS011;4328;48.622;9.230;2023-09-30T09:00:52;7.60;;;3.63;;
8580;SDS011;4328;48.622;9.230;2023-09-30T09:03:18;5.75;;;3.58;;
8580;SDS011;4328;48.622;9.230;2023-09-30T09:05:50;3.67;;;3.38;;
8580;SDS011;4328;48.622;9.230;2023-09-30T09:08:19;5.45;;;3.33;;
8580;SDS011;4328;48.622;9.230;2023-09-30T09:10:53;5.43;;;3.67;;
8580;SDS011;4328;48.622;9.230;2023-09-30T09:13:19;4.72;;;3.97;;
8580;SDS011;4328;48.622;9.230;2023-09-30T09:15:45;4.30;;;3.70;;
8580;SDS011;4328;48.622;9.230;2023-09-30T09:18:12;4.13;;;3.33;;
8580;SDS011;4328;48.622;9.230;2023-09-30T09:20:40;5.53;;;4.22;;
8580;SDS011;4328;48.622;9.230;2023-09-30T09:23:08;4.50;;;4.10;;
8580;SDS011;4328;48.622;9.230;2023-09-30T09:25:37;5.95;;;3.20;;
8580;SDS011;4328;48.622;9.230;2023-09-30T09:28:04;4.80;;;2.88;;
8580;SDS011;4328;48.622;9.230;2023-09-30T09:30:31;5.53;;;3.28;;
8580;SDS011;4328;48.622;9.230;2023-09-30T09:32:58;3.90;;;3.00;;
8580;SDS011;4328;48.622;9.230;2023-09-30T09:35:25;4.38;;;3.17;;
8580;SDS011;4328;48.622;9.230;2023-09-30T09:37:54;4.65;;;3.00;;
8580;SDS011;4328;48.622;9.230;2023-09-30T09:40:24;3.80;;;3.03;;
8580;SDS011;4328;48.622;9.230;2023-09-30T09:42:51;4.22;;;3.30;;
8580;SDS011;4328;48.622;9.230;2023-09-30T09:45:19;5.05;;;3.00;;
8580;SDS011;4328;48.622;9.230;2023-09-30T09:47:46;4.07;;;3.25;;
8580;SDS011;4328;48.622;9.230;2023-09-30T09:50:13;3.70;;;3.15;;
8580;SDS011;4328;48.622;9.230;2023-09-30T09:52:40;3.28;;;2.88;;
8580;SDS011;4328;48.622;9.230;2023-09-30T09:55:07;6.72;;;3.33;;
8580;SDS011;4328;48.622;9.230;2023-09-30T09:57:35;3.97;;;3.05;;
8580;SDS011;4328;48.622;9.230;2023-09-30T10:00:03;4.22;;;2.78;;
8580;SDS011;4328;48.622;9.230;2023-09-30T10:02:39;4.22;;;3.20;;
8580;SDS011;4328;48.622;9.230;2023-09-30T10:05:05;3.45;;;2.90;;
8580;SDS011;4328;48.622;9.230;2023-09-30T10:07:33;4.78;;;3.40;;
8580;SDS011;4328;48.622;9.230;2023-09-30T10:10:01;4.75;;;3.50;;
8580;SDS011;4328;48.622;9.230;2023-09-30T10:12:36;5.40;;;3.78;;
8580;SDS011;4328;48.622;9.230;2023-09-30T10:17:57;5.22;;;4.10;;
8580;SDS011;4328;48.622;9.230;2023-09-30T10:20:26;6.70;;;4.68;;
8580;SDS011;4328;48.622;9.230;2023-09-30T10:25:34;7.97;;;4.57;;
8580;SDS011;4328;48.622;9.230;2023-09-30T10:28:01;4.93;;;3.88;;
8580;SDS011;4328;48.622;9.230;2023-09-30T10:33:32;6.65;;;4.40;;
8580;SDS011;4328;48.622;9.230;2023-09-30T10:35:59;5.05;;;4.10;;
8580;SDS011;4328;48.622;9.230;2023-09-30T10:38:37;5.95;;;4.60;;
8580;SDS011;4328;48.622;9.230;2023-09-30T10:41:07;5.93;;;4.22;;
8580;SDS011;4328;48.622;9.230;2023-09-30T10:43:35;7.13;;;4.57;;
8580;SDS011;4328;48.622;9.230;2023-09-30T10:46:02;6.00;;;4.60;;
8580;SDS011;4328;48.622;9.230;2023-09-30T10:48:36;6.82;;;4.53;;
8580;SDS011;4328;48.622;9.230;2023-09-30T10:51:13;6.22;;;4.65;;
8580;SDS011;4328;48.622;9.230;2023-09-30T10:53:43;6.57;;;4.75;;
8580;SDS011;4328;48.622;9.230;2023-09-30T10:56:10;6.03;;;4.85;;
8580;SDS011;4328;48.622;9.230;2023-09-30T10:58:41;8.52;;;4.88;;
8580;SDS011;4328;48.622;9.230;2023-09-30T11:01:08;6.80;;;4.82;;
8580;SDS011;4328;48.622;9.230;2023-09-30T11:03:35;9.20;;;5.68;;
8580;SDS011;4328;48.622;9.230;2023-09-30T11:06:01;6.65;;;5.05;;
8580;SDS011;4328;48.622;9.230;2023-09-30T11:08:29;6.60;;;5.03;;
8580;SDS011;4328;48.622;9.230;2023-09-30T11:10:56;6.70;;;5.03;;
8580;SDS011;4328;48.622;9.230;2023-09-30T11:13:22;6.88;;;5.05;;
8580;SDS011;4328;48.622;9.230;2023-09-30T11:16:00;7.28;;;5.20;;
8580;SDS011;4328;48.622;9.230;2023-09-30T11:18:27;7.13;;;4.80;;
8580;SDS011;4328;48.622;9.230;2023-09-30T11:21:02;7.00;;;4.78;;
8580;SDS011;4328;48.622;9.230;2023-09-30T11:23:29;6.80;;;5.10;;
8580;SDS011;4328;48.622;9.230;2023-09-30T11:25:56;7.85;;;5.13;;
8580;SDS011;4328;48.622;9.230;2023-09-30T11:28:22;7.50;;;5.20;;
8580;SDS011;4328;48.622;9.230;2023-09-30T11:30:55;6.00;;;4.88;;
8580;SDS011;4328;48.622;9.230;2023-09-30T11:33:22;7.80;;;5.30;;
8580;SDS011;4328;48.622;9.230;2023-09-30T11:35:55;7.53;;;5.35;;
8580;SDS011;4328;48.622;9.230;2023-09-30T11:38:23;9.07;;;5.40;;
8580;SDS011;4328;48.622;9.230;2023-09-30T11:40:58;8.73;;;5.25;;
8580;SDS011;4328;48.622;9.230;2023-09-30T11:43:25;8.30;;;5.63;;
8580;SDS011;4328;48.622;9.230;2023-09-30T11:45:51;7.90;;;5.32;;
8580;SDS011;4328;48.622;9.230;2023-09-30T11:48:18;8.95;;;5.38;;
8580;SDS011;4328;48.622;9.230;2023-09-30T11:50:47;7.57;;;5.18;;
8580;SDS011;4328;48.622;9.230;2023-09-30T11:53:16;9.52;;;5.35;;
8580;SDS011;4328;48.622;9.230;2023-09-30T11:55:44;7.25;;;5.13;;
8580;SDS011;4328;48.622;9.230;2023-09-30T11:58:11;8.30;;;5.40;;
8580;SDS011;4328;48.622;9.230;2023-09-30T12:00:43;7.60;;;5.45;;
8580;SDS011;4328;48.622;9.230;2023-09-30T12:03:09;8.40;;;5.30;;
8580;SDS011;4328;48.622;9.230;2023-09-30T12:05:36;11.00;;;5.72;;
8580;SDS011;4328;48.622;9.230;2023-09-30T12:08:04;7.17;;;5.30;;
8580;SDS011;4328;48.622;9.230;2023-09-30T12:10:31;8.53;;;5.00;;
8580;SDS011;4328;48.622;9.230;2023-09-30T12:12:58;8.77;;;5.65;;
8580;SDS011;4328;48.622;9.230;2023-09-30T12:15:24;7.90;;;4.70;;
8580;SDS011;4328;48.622;9.230;2023-09-30T12:17:52;8.40;;;6.00;;
8580;SDS011;4328;48.622;9.230;2023-09-30T12:20:19;7.65;;;5.32;;
8580;SDS011;4328;48.622;9.230;2023-09-30T12:22:45;7.25;;;5.43;;
8580;SDS011;4328;48.622;9.230;2023-09-30T12:25:13;7.00;;;4.93;;
8580;SDS011;4328;48.622;9.230;2023-09-30T12:27:39;8.82;;;5.78;;
8580;SDS011;4328;48.622;9.230;2023-09-30T12:30:06;7.10;;;5.82;;
8580;SDS011;4328;48.622;9.230;2023-09-30T12:32:33;8.18;;;5.32;;
8580;SDS011;4328;48.622;9.230;2023-09-30T12:35:00;7.53;;;5.03;;
8580;SDS011;4328;48.622;9.230;2023-09-30T12:37:27;6.88;;;5.20;;
8580;SDS011;4328;48.622;9.230;2023-09-30T12:39:57;8.05;;;5.28;;
8580;SDS011;4328;48.622;9.230;2023-09-30T12:42:25;6.95;;;5.25;;
8580;SDS011;4328;48.622;9.230;2023-09-30T12:44:51;7.07;;;5.22;;
8580;SDS011;4328;48.622;9.230;2023-09-30T12:47:17;8.25;;;5.10;;
8580;SDS011;4328;48.622;9.230;2023-09-30T12:49:44;7.32;;;5.53;;
8580;SDS011;4328;48.622;9.230;2023-09-30T12:52:10;8.60;;;5.40;;
8580;SDS011;4328;48.622;9.230;2023-09-30T12:54:37;7.03;;;5.00;;
8580;SDS011;4328;48.622;9.230;2023-09-30T12:57:04;7.70;;;4.97;;
8580;SDS011;4328;48.622;9.230;2023-09-30T12:59:34;7.32;;;5.70;;
8580;SDS011;4328;48.622;9.230;2023-09-30T13:02:00;9.43;;;5.38;;
8580;SDS011;4328;48.622;9.230;2023-09-30T13:04:28;6.55;;;5.05;;
8580;SDS011;4328;48.622;9.230;2023-09-30T13:06:54;8.48;;;5.70;;
8580;SDS011;4328;48.622;9.230;2023-09-30T13:09:21;8.07;;;5.18;;
8580;SDS011;4328;48.622;9.230;2023-09-30T13:11:47;7.65;;;5.40;;
8580;SDS011;4328;48.622;9.230;2023-09-30T13:14:13;6.60;;;5.15;;
8580;SDS011;4328;48.622;9.230;2023-09-30T13:16:41;7.70;;;5.25;;
8580;SDS011;4328;48.622;9.230;2023-09-30T13:19:08;7.68;;;5.32;;
8580;SDS011;4328;48.622;9.230;2023-09-30T13:21:34;7.05;;;5.65;;
8580;SDS011;4328;48.622;9.230;2023-09-30T13:24:00;8.85;;;5.38;;
8580;SDS011;4328;48.622;9.230;2023-09-30T13:26:27;6.50;;;4.57;;
8580;SDS011;4328;48.622;9.230;2023-09-30T13:28:53;8.43;;;4.85;;
8580;SDS011;4328;48.622;9.230;2023-09-30T13:31:19;6.32;;;4.78;;
8580;SDS011;4328;48.622;9.230;2023-09-30T13:33:48;5.53;;;4.30;;
8580;SDS011;4328;48.622;9.230;2023-09-30T13:36:14;6.78;;;4.70;;
8580;SDS011;4328;48.622;9.230;2023-09-30T13:38:40;6.05;;;4.80;;
8580;SDS011;4328;48.622;9.230;2023-09-30T13:41:07;6.85;;;4.80;;
8580;SDS011;4328;48.622;9.230;2023-09-30T13:43:33;6.20;;;4.57;;
8580;SDS011;4328;48.622;9.230;2023-09-30T13:46:02;6.45;;;4.32;;
8580;SDS011;4328;48.622;9.230;2023-09-30T13:48:29;5.95;;;4.70;;
8580;SDS011;4328;48.622;9.230;2023-09-30T13:50:56;7.47;;;4.70;;
8580;SDS011;4328;48.622;9.230;2023-09-30T13:53:29;4.88;;;4.15;;
8580;SDS011;4328;48.622;9.230;2023-09-30T13:55:55;7.60;;;5.20;;
8580;SDS011;4328;48.622;9.230;2023-09-30T13:58:22;5.88;;;4.55;;
8580;SDS011;4328;48.622;9.230;2023-09-30T14:00:49;6.72;;;4.57;;
8580;SDS011;4328;48.622;9.230;2023-09-30T14:03:17;7.45;;;4.57;;
8580;SDS011;4328;48.622;9.230;2023-09-30T14:05:44;6.22;;;3.97;;
8580;SDS011;4328;48.622;9.230;2023-09-30T14:08:12;7.78;;;4.78;;
8580;SDS011;4328;48.622;9.230;2023-09-30T14:10:39;6.80;;;4.50;;
8580;SDS011;4328;48.622;9.230;2023-09-30T14:13:05;6.28;;;4.78;;
8580;SDS011;4328;48.622;9.230;2023-09-30T14:15:32;7.40;;;4.93;;
8580;SDS011;4328;48.622;9.230;2023-09-30T14:17:59;7.22;;;4.90;;
8580;SDS011;4328;48.622;9.230;2023-09-30T14:20:25;8.07;;;5.13;;
8580;SDS011;4328;48.622;9.230;2023-09-30T14:22:51;8.00;;;5.13;;
8580;SDS011;4328;48.622;9.230;2023-09-30T14:25:21;8.35;;;4.63;;
8580;SDS011;4328;48.622;9.230;2023-09-30T14:27:48;6.30;;;4.60;;
8580;SDS011;4328;48.622;9.230;2023-09-30T14:30:14;6.65;;;4.85;;
8580;SDS011;4328;48.622;9.230;2023-09-30T14:32:41;6.95;;;4.53;;
8580;SDS011;4328;48.622;9.230;2023-09-30T14:35:08;9.82;;;5.10;;
8580;SDS011;4328;48.622;9.230;2023-09-30T14:37:34;6.80;;;5.30;;
8580;SDS011;4328;48.622;9.230;2023-09-30T14:40:01;7.50;;;4.45;;
8580;SDS011;4328;48.622;9.230;2023-09-30T14:42:31;7.97;;;4.85;;
8580;SDS011;4328;48.622;9.230;2023-09-30T14:44:58;7.78;;;4.50;;
8580;SDS011;4328;48.622;9.230;2023-09-30T14:47:24;6.00;;;4.57;;
8580;SDS011;4328;48.622;9.230;2023-09-30T14:49:50;9.35;;;5.25;;
8580;SDS011;4328;48.622;9.230;2023-09-30T14:52:17;8.55;;;4.50;;
8580;SDS011;4328;48.622;9.230;2023-09-30T14:54:44;7.78;;;4.80;;
8580;SDS011;4328;48.622;9.230;2023-09-30T14:57:11;7.63;;;4.72;;
8580;SDS011;4328;48.622;9.230;2023-09-30T14:59:40;6.93;;;4.75;;
8580;SDS011;4328;48.622;9.230;2023-09-30T15:02:06;6.28;;;4.30;;
8580;SDS011;4328;48.622;9.230;2023-09-30T15:04:34;6.90;;;4.80;;
8580;SDS011;4328;48.622;9.230;2023-09-30T15:07:00;7.83;;;5.00;;
8580;SDS011;4328;48.622;9.230;2023-09-30T15:09:27;7.33;;;4.57;;
8580;SDS011;4328;48.622;9.230;2023-09-30T15:11:53;7.20;;;4.60;;
8580;SDS011;4328;48.622;9.230;2023-09-30T15:14:20;6.83;;;4.80;;
8580;SDS011;4328;48.622;9.230;2023-09-30T15:16:48;8.03;;;5.20;;
8580;SDS011;4328;48.622;9.230;2023-09-30T15:19:14;7.50;;;5.00;;
8580;SDS011;4328;48.622;9.230;2023-09-30T15:21:40;6.90;;;4.77;;
8580;SDS011;4328;48.622;9.230;2023-09-30T15:24:07;7.37;;;4.60;;